Time;durP1;ratioP1;P1;durP2;ratioP2;P2;SDS_P1;SDS_P2;PMS_P1;PMS_P2;Temp;Humidity;BMP_temperature;BMP_pressure;BME280_temperature;BME280_humidity;BME280_pressure;Samples;Min_cycle;Max_cycle;Signal;HPM_P1;HPM_P2
2022/04/01 00:01:59;;;;;;;26.43;11.10;;;;;;;;;;4995673;28;20218;-76
2022/04/01 00:04:25;;;;;;;22.03;10.53;;;;;;;;;;4994926;28;20456;-76
2022/04/01 00:06:51;;;;;;;30.53;15.60;;;;;;;;;;4995587;28;20457;-76
2022/04/01 00:09:17;;;;;;;24.63;11.98;;;;;;;;;;4995190;28;20424;-75
2022/04/01 00:11:43;;;;;;;29.15;15.48;;;;;;;;;;4995297;28;20181;-76
2022/04/01 00:14:09;;;;;;;31.43;15.17;;;;;;;;;;4998750;28;20185;-75
2022/04/01 00:16:35;;;;;;;17.05;8.02;;;;;;;;;;4995263;28;20424;-75
2022/04/01 00:19:03;;;;;;;30.00;14.77;;;;;;;;;;4994869;28;20197;-75
2022/04/01 00:21:29;;;;;;;34.73;15.43;;;;;;;;;;4994917;28;20833;-76
2022/04/01 00:23:55;;;;;;;26.58;12.10;;;;;;;;;;4994657;28;20428;-76
2022/04/01 00:26:21;;;;;;;30.43;14.60;;;;;;;;;;4995011;28;20677;-75
2022/04/01 00:28:47;;;;;;;31.00;11.83;;;;;;;;;;4995298;28;20479;-73
2022/04/01 00:31:13;;;;;;;23.03;12.07;;;;;;;;;;4994660;28;20850;-73
2022/04/01 00:33:39;;;;;;;35.17;14.80;;;;;;;;;;4994497;28;20508;-73
2022/04/01 00:36:05;;;;;;;21.53;11.10;;;;;;;;;;4994780;28;20856;-73
2022/04/01 00:38:31;;;;;;;26.47;10.17;;;;;;;;;;4994644;28;20425;-73
2022/04/01 00:40:59;;;;;;;23.13;9.43;;;;;;;;;;4994688;28;20429;-73
2022/04/01 00:43:26;;;;;;;27.57;9.90;;;;;;;;;;4994699;28;20424;-73
2022/04/01 00:45:53;;;;;;;20.20;9.00;;;;;;;;;;4994328;28;20564;-73
2022/04/01 00:48:19;;;;;;;27.83;10.20;;;;;;;;;;4994280;28;20448;-73
2022/04/01 00:50:45;;;;;;;19.10;9.80;;;;;;;;;;4995110;28;20420;-73
2022/04/01 00:53:11;;;;;;;26.23;10.10;;;;;;;;;;4994443;28;20472;-73
2022/04/01 00:55:38;;;;;;;25.57;8.93;;;;;;;;;;4993163;28;20479;-73
2022/04/01 00:58:05;;;;;;;15.30;4.97;;;;;;;;;;4994470;28;20480;-73
2022/04/01 01:00:31;;;;;;;20.00;9.67;;;;;;;;;;4994845;28;20432;-75
2022/04/01 01:02:58;;;;;;;22.43;8.60;;;;;;;;;;4994427;28;20468;-75
2022/04/01 01:05:24;;;;;;;23.97;7.80;;;;;;;;;;4994260;28;20432;-76
2022/04/01 01:07:50;;;;;;;25.53;13.50;;;4.50;1.00;;;;;;4993930;28;20457;-75
2022/04/01 01:10:18;;;;;;;23.63;12.30;;;;;;;;;;4994045;28;20572;-76
2022/04/01 01:12:45;;;;;;;39.58;15.15;;;;;;;;;;4998052;28;20431;-76
2022/04/01 01:15:17;;;;;;;30.87;13.70;;;4.50;1.00;;;;;;4994234;28;20664;-73
2022/04/01 01:17:44;;;;;;;29.47;12.73;;;;;;;;;;4994308;28;20469;-73
2022/04/01 01:20:17;;;;;;;19.87;8.97;;;;;;;;;;4994247;28;20448;-73
2022/04/01 01:22:43;;;;;;;26.73;9.97;;;;;;;;;;4993792;28;20420;-73
2022/04/01 01:25:11;;;;;;;25.90;10.40;;;4.60;1.00;;;;;;4993850;28;20433;-73
2022/04/01 01:27:38;;;;;;;28.02;12.40;;;;;;;;;;4993676;28;20967;-73
2022/04/01 01:30:04;;;;;;;27.80;12.60;;;;;;;;;;4994317;28;20656;-73
2022/04/01 01:32:32;;;;;;;21.80;12.20;;;;;;;;;;4993873;28;20603;-73
2022/04/01 01:34:58;;;;;;;28.90;13.20;;;;;;;;;;4993520;28;20429;-72
2022/04/01 01:37:24;;;;;;;28.57;12.07;;;;;;;;;;4993749;28;20911;-72
2022/04/01 01:39:51;;;;;;;24.43;11.87;;;;;;;;;;4993458;28;20435;-73
2022/04/01 01:42:17;;;;;;;44.83;13.20;;;;;;;;;;4993394;28;20428;-73
2022/04/01 01:44:43;;;;;;;17.10;8.23;;;;;;;;;;4993316;28;20523;-75
2022/04/01 01:47:09;;;;;;;24.03;11.57;;;;;;;;;;4993125;28;20539;-75
2022/04/01 01:49:35;;;;;;;27.13;12.40;;;;;;;;;;4993449;28;20471;-76
2022/04/01 01:54:49;;;;;;;39.10;13.65;;;;;;;;;;4993002;28;20600;-76
2022/04/01 01:57:21;;;;;;;24.95;12.60;;;4.40;1.00;;;;;;4993600;28;20174;-75
2022/04/01 01:59:47;;;;;;;29.42;10.10;;;;;;;;;;4993675;28;20240;-75
2022/04/01 02:02:13;;;;;;;27.90;12.90;;;;;;;;;;4993625;28;20216;-75
2022/04/01 02:04:40;;;;;;;27.73;11.90;;;;;;;;;;4992953;28;20460;-75
2022/04/01 02:07:07;;;;;;;20.03;11.20;;;;;;;;;;4993516;28;20495;-75
2022/04/01 02:09:33;;;;;;;21.90;11.20;;;;;;;;;;4993279;28;20421;-75
2022/04/01 02:11:59;;;;;;;26.05;12.32;;;;;;;;;;4993302;28;20423;-75
2022/04/01 02:14:25;;;;;;;20.95;11.30;;;;;;;;;;4993407;28;20181;-75
2022/04/01 02:16:51;;;;;;;24.25;12.68;;;;;;;;;;4993371;28;20177;-76
2022/04/01 02:19:21;;;;;;;31.63;13.30;;;;;;;;;;4993122;28;20181;-75
2022/04/01 02:21:48;;;;;;;22.33;11.48;;;;;;;;;;4993142;28;20424;-76
2022/04/01 02:24:14;;;;;;;27.63;13.13;;;;;;;;;;4992848;28;20174;-76
2022/04/01 02:26:40;;;;;;;20.33;11.63;;;;;;;;;;4993327;28;20478;-76
2022/04/01 02:29:08;;;;;;;22.43;11.60;;;;;;;;;;4992925;28;20165;-75
2022/04/01 02:31:34;;;;;;;30.80;13.63;;;;;;;;;;4993304;28;20551;-76
2022/04/01 02:34:02;;;;;;;21.83;11.90;;;;;;;;;;4992900;28;20512;-76
2022/04/01 02:36:29;;;;;;;25.03;12.33;;;;;;;;;;4992821;28;20185;-76
2022/04/01 02:38:55;;;;;;;20.73;12.10;;;;;;;;;;4993062;28;20782;-76
2022/04/01 02:41:21;;;;;;;16.07;8.80;;;;;;;;;;4993059;28;20186;-76
2022/04/01 02:43:47;;;;;;;35.00;10.88;;;;;;;;;;4992339;28;20916;-76
2022/04/01 02:46:13;;;;;;;26.20;8.95;;;;;;;;;;4992973;28;20209;-76
2022/04/01 02:48:39;;;;;;;21.08;8.52;;;;;;;;;;4992576;28;20261;-76
2022/04/01 02:51:05;;;;;;;9.80;5.65;;;;;;;;;;4993310;28;20281;-76
2022/04/01 02:53:31;;;;;;;20.75;10.88;;;;;;;;;;4993005;28;20232;-75
2022/04/01 02:55:57;;;;;;;22.92;10.88;;;;;;;;;;4993326;28;20193;-76
2022/04/01 02:58:23;;;;;;;20.67;9.27;;;;;;;;;;4996799;28;20268;-76
2022/04/01 03:00:50;;;;;;;28.20;10.55;;;;;;;;;;4996628;28;20424;-76
2022/04/01 03:03:16;;;;;;;33.33;13.63;;;;;;;;;;4995886;28;20182;-76
2022/04/01 03:05:45;;;;;;;25.55;11.65;;;;;;;;;;4995183;28;20417;-76
2022/04/01 03:08:11;;;;;;;21.08;11.38;;;;;;;;;;4996524;28;20660;-76
2022/04/01 03:10:39;;;;;;;22.75;12.05;;;3.80;1.00;;;;;;4996215;28;20236;-76
2022/04/01 03:13:09;;;;;;;23.23;12.07;;;;;;;;;;5005005;28;20208;-76
2022/04/01 03:15:35;;;;;;;24.55;12.25;;;;;;;;;;4995809;28;20645;-75
2022/04/01 03:18:01;;;;;;;22.55;11.85;;;;;;;;;;4995525;28;20260;-76
2022/04/01 03:20:29;;;;;;;26.67;12.32;;;;;;;;;;4996181;28;20688;-76
2022/04/01 03:22:55;;;;;;;19.58;10.40;;;;;;;;;;4996233;28;20178;-76
2022/04/01 03:25:21;;;;;;;23.65;11.38;;;;;;;;;;4996341;28;20188;-76
2022/04/01 03:27:48;;;;;;;29.33;11.33;;;;;;;;;;4995848;28;20201;-76
2022/04/01 03:30:14;;;;;;;19.55;6.15;;;;;;;;;;4996218;28;20424;-76
2022/04/01 03:32:41;;;;;;;25.20;11.43;;;;;;;;;;4995932;28;20177;-76
2022/04/01 03:35:08;;;;;;;24.90;11.95;;;;;;;;;;4993972;28;20181;-75
2022/04/01 03:37:34;;;;;;;24.88;10.68;;;;;;;;;;4995782;28;20181;-75
2022/04/01 03:40:01;;;;;;;16.80;9.30;;;;;;;;;;4995803;28;20182;-76
2022/04/01 03:42:31;;;;;;;22.55;10.15;;;;;;;;;;4995537;28;20455;-76
2022/04/01 03:45:20;;;;;;;28.13;11.98;;;4.30;1.00;;;;;;4995682;28;20721;-75
2022/04/01 03:48:07;;;;;;;26.73;11.60;;;;;;;;;;4986991;28;20320;-76
2022/04/01 03:50:34;;;;;;;19.17;7.65;;;;;;;;;;4993029;28;20173;-76
2022/04/01 03:53:04;;;;;;;19.67;10.10;;;;;;;;;;4993398;28;20552;-76
2022/04/01 03:55:31;;;;;;;17.80;8.73;;;;;;;;;;4992926;28;20184;-76
2022/04/01 03:58:01;;;;;;;20.70;6.67;;;;;;;;;;4993214;28;20250;-76
2022/04/01 04:00:29;;;;;;;13.77;5.87;;;;;;;;;;4993062;28;20429;-73
2022/04/01 04:02:55;;;;;;;24.10;7.72;;;;;;;;;;4992004;28;20850;-73
2022/04/01 04:05:22;;;;;;;17.33;8.80;;;;;;;;;;4990215;28;20189;-73
2022/04/01 04:07:49;;;;;;;19.50;9.13;;;;;;;;;;4991524;28;20475;-73
2022/04/01 04:10:15;;;;;;;17.73;9.17;;;;;;;;;;4992832;28;20892;-73
2022/04/01 04:12:43;;;;;;;25.17;9.50;;;;;;;;;;4995964;28;20559;-73
2022/04/01 04:15:09;;;;;;;34.43;10.40;;;;;;;;;;4992149;28;20437;-73
2022/04/01 04:17:36;;;;;;;24.00;9.45;;;;;;;;;;4992767;28;20437;-73
2022/04/01 04:20:08;;;;;;;20.83;8.25;;;;;;;;;;4995002;28;20174;-73
2022/04/01 04:22:43;;;;;;;30.35;8.85;;;;;;;;;;4994942;28;20244;-73
2022/04/01 04:25:14;;;;;;;18.87;8.33;;;;;;;;;;4992983;28;20207;-73
2022/04/01 04:28:14;;;;;;;14.05;7.80;;;4.20;1.00;;;;;;4994764;28;20448;-73
2022/04/01 04:30:49;;;;;;;17.10;8.80;;;4.10;1.00;;;;;;4995159;28;20220;-74
2022/04/01 04:33:17;;;;;;;14.60;8.00;;;;;;;;;;4994410;28;20436;-73
2022/04/01 04:35:45;;;;;;;12.07;7.15;;;;;;;;;;4994483;28;20178;-73
2022/04/01 04:38:11;;;;;;;13.75;8.05;;;;;;;;;;4994346;28;20218;-73
2022/04/01 04:40:37;;;;;;;18.73;6.60;;;;;;;;;;4994178;28;20550;-73
2022/04/01 04:43:03;;;;;;;16.37;8.20;;;;;;;;;;4994242;28;20178;-73
2022/04/01 04:45:32;;;;;;;21.50;8.20;;;;;;;;;;4994671;28;20409;-73
2022/04/01 04:47:58;;;;;;;16.95;7.45;;;;;;;;;;4994106;28;20456;-74
2022/04/01 04:50:24;;;;;;;17.25;7.78;;;;;;;;;;4994686;28;20184;-73
2022/04/01 04:52:54;;;;;;;18.55;8.20;;;;;;;;;;4994276;28;20205;-73
2022/04/01 04:55:20;;;;;;;20.38;9.07;;;;;;;;;;4994613;28;20224;-73
2022/04/01 04:57:47;;;;;;;25.38;10.07;;;4.00;1.00;;;;;;4993528;28;20192;-73
2022/04/01 05:00:19;;;;;;;19.80;8.68;;;;;;;;;;4994270;28;20212;-73
2022/04/01 05:03:10;;;;;;;18.38;8.80;;;4.20;1.00;;;;;;4994447;28;20224;-73
2022/04/01 05:05:49;;;;;;;16.30;9.38;;;;;;;;;;4994447;28;20181;-73
2022/04/01 05:08:15;;;;;;;17.17;9.13;;;;;;;;;;4993892;28;20208;-73
2022/04/01 05:10:53;;;;;;;38.03;8.13;;;;;;;;;;4993489;28;20539;-73
2022/04/01 05:13:19;;;;;;;18.42;9.43;;;;;;;;;;4995916;28;20490;-73
2022/04/01 05:15:46;;;;;;;18.20;8.20;;;;;;;;;;4995978;28;20205;-73
2022/04/01 05:18:16;;;;;;;23.48;7.13;;;;;;;;;;4993136;28;20429;-74
2022/04/01 05:20:50;;;;;;;27.02;7.43;;;;;;;;;;4992030;28;20185;-72
2022/04/01 05:23:21;;;;;;;22.80;9.23;;;;;;;;;;4993679;28;20652;-73
2022/04/01 05:25:54;;;;;;;19.10;8.88;;;3.80;1.00;;;;;;4993815;28;20546;-73
2022/04/01 05:28:23;;;;;;;21.55;9.60;;;;;;;;;;4993564;28;20256;-73
2022/04/01 05:31:05;;;;;;;21.20;9.50;;;;;;;;;;4993689;28;20170;-73
2022/04/01 05:33:40;;;;;;;25.55;9.65;;;;;;;;;;4993619;28;20170;-73
2022/04/01 05:36:09;;;;;;;14.82;8.27;;;;;;;;;;4994058;28;20525;-73
2022/04/01 05:38:36;;;;;;;19.45;7.57;;;;;;;;;;4993781;28;20176;-73
2022/04/01 05:41:02;;;;;;;18.58;8.60;;;;;;;;;;4993872;28;20248;-73
2022/04/01 05:43:29;;;;;;;25.75;9.20;;;;;;;;;;4993458;28;20177;-73
2022/04/01 05:45:56;;;;;;;21.23;9.30;;;;;;;;;;4993887;28;20224;-73
2022/04/01 05:48:23;;;;;;;35.47;10.80;;;;;;;;;;4992564;28;20232;-75
2022/04/01 05:50:52;;;;;;;15.75;8.55;;;3.90;1.00;;;;;;4986782;28;20189;-76
2022/04/01 05:53:20;;;;;;;18.85;8.80;;;;;;;;;;4993308;28;20725;-75
2022/04/01 05:55:46;;;;;;;25.50;9.88;;;;;;;;;;4992991;28;20178;-75
2022/04/01 05:58:12;;;;;;;32.28;10.65;;;;;;;;;;4990647;28;20180;-75
2022/04/01 06:01:19;;;;;;;14.43;8.77;;;3.90;1.00;;;;;;4993362;28;20534;-75
2022/04/01 06:03:54;;;;;;;15.25;8.60;;;;;;;;;;4971741;28;20430;-75
2022/04/01 06:06:28;;;;;;;19.58;9.55;;;3.90;1.00;;;;;;4969030;28;20252;-75
2022/04/01 06:09:14;;;;;;;20.00;9.40;;;4.00;1.00;;;;;;4971780;28;20193;-75
2022/04/01 06:11:45;;;;;;;23.92;8.98;;;;;;;;;;4971690;28;20182;-75
2022/04/01 06:14:34;;;;;;;38.20;11.32;;;;;;;;;;4973701;28;20194;-75
2022/04/01 06:17:12;;;;;;;16.02;5.82;;;3.80;1.00;;;;;;4971960;28;20182;-73
2022/04/01 06:19:44;;;;;;;436.70;49.30;;;;;;;;;;4966156;28;20228;-73
2022/04/01 06:22:17;;;;;;;18.15;9.35;;;;;;;;;;4967992;28;20182;-72
2022/04/01 06:25:01;;;;;;;28.75;10.32;;;3.90;1.00;;;;;;4971608;28;20190;-73
2022/04/01 06:27:46;;;;;;;21.10;9.60;;;;;;;;;;4971535;28;20233;-74
2022/04/01 06:30:14;;;;;;;18.70;7.10;;;;;;;;;;4968253;28;20198;-73
2022/04/01 06:32:46;;;;;;;23.27;9.87;;;;;;;;;;4975368;28;20178;-73
2022/04/01 06:35:18;;;;;;;16.23;7.57;;;;;;;;;;4975688;28;20512;-73
2022/04/01 06:37:48;;;;;;;23.50;11.18;;;;;;;;;;4975177;28;20561;-73
2022/04/01 06:40:14;;;;;;;22.30;9.07;;;;;;;;;;4982174;28;20197;-70
2022/04/01 06:42:41;;;;;;;16.02;8.35;;;;;;;;;;4996308;28;20193;-74
2022/04/01 06:45:09;;;;;;;25.65;10.05;;;;;;;;;;4996656;28;20181;-73
2022/04/01 06:47:39;;;;;;;26.15;10.45;;;;;;;;;;4996969;28;20754;-74
2022/04/01 06:50:05;;;;;;;18.20;8.70;;;;;;;;;;4996722;28;20177;-73
2022/04/01 06:52:32;;;;;;;25.00;9.68;;;;;;;;;;4996328;28;20277;-73
2022/04/01 06:54:58;;;;;;;24.27;9.30;;;;;;;;;;4996680;28;20185;-74
2022/04/01 06:57:24;;;;;;;16.27;8.43;;;;;;;;;;4995998;28;20178;-73
2022/04/01 06:59:51;;;;;;;23.75;8.55;;;;;;;;;;4996160;28;20530;-73
2022/04/01 07:02:17;;;;;;;17.67;8.50;;;;;;;;;;4996586;28;20232;-75
2022/04/01 07:04:43;;;;;;;14.52;6.70;;;;;;;;;;4996854;28;20510;-75
2022/04/01 07:07:09;;;;;;;18.70;8.02;;;;;;;;;;4996590;28;20198;-75
2022/04/01 07:09:38;;;;;;;15.90;8.50;;;;;;;;;;4995754;28;20181;-75
2022/04/01 07:12:04;;;;;;;20.40;8.18;;;;;;;;;;4996758;28;20182;-75
2022/04/01 07:14:34;;;;;;;20.83;7.10;;;;;;;;;;4997593;28;20660;-75
2022/04/01 07:17:02;;;;;;;22.40;8.68;;;;;;;;;;4996683;28;20170;-74
2022/04/01 07:19:28;;;;;;;13.98;5.20;;;;;;;;;;4996752;28;20708;-74
2022/04/01 07:21:55;;;;;;;18.02;7.38;;;;;;;;;;5000623;28;20212;-75
2022/04/01 07:24:21;;;;;;;19.75;7.63;;;;;;;;;;4995686;28;20177;-75
2022/04/01 07:26:47;;;;;;;17.00;8.00;;;;;;;;;;4996244;28;20204;-75
2022/04/01 07:29:14;;;;;;;16.05;7.05;;;;;;;;;;4996249;28;20227;-75
2022/04/01 07:34:39;;;;;;;16.38;7.22;;;;;;;;;;4995937;28;20196;-75
2022/04/01 07:37:05;;;;;;;16.40;7.00;;;;;;;;;;4995823;28;20193;-75
2022/04/01 07:39:32;;;;;;;15.57;6.68;;;;;;;;;;4996110;28;20177;-75
2022/04/01 07:41:58;;;;;;;15.43;7.22;;;;;;;;;;4995394;28;20185;-75
2022/04/01 07:44:24;;;;;;;12.18;5.28;;;;;;;;;;4995205;28;20181;-75
2022/04/01 07:46:50;;;;;;;21.58;7.20;;;3.60;1.00;;;;;;4995404;28;20205;-75
2022/04/01 07:49:17;;;;;;;17.35;7.68;;;;;;;;;;4995717;28;20236;-73
2022/04/01 07:51:43;;;;;;;14.30;6.47;;;;;;;;;;4995840;28;20669;-74
2022/04/01 07:54:10;;;;;;;18.67;7.00;;;;;;;;;;4995748;28;20710;-74
2022/04/01 07:56:36;;;;;;;16.67;6.80;;;;;;;;;;4995450;28;20181;-74
2022/04/01 07:59:04;;;;;;;15.68;6.60;;;;;;;;;;4995564;28;20174;-74
2022/04/01 08:01:30;;;;;;;16.83;7.68;;;;;;;;;;4995235;28;20181;-73
2022/04/01 08:03:56;;;;;;;13.57;6.88;;;;;;;;;;4996072;28;20185;-74
2022/04/01 08:06:22;;;;;;;19.53;7.67;;;;;;;;;;4995445;28;20180;-74
2022/04/01 08:08:48;;;;;;;172.65;19.40;;;;;;;;;;4983516;28;20421;-74
2022/04/01 08:11:14;;;;;;;19.60;5.13;;;;;;;;;;4989546;28;20666;-74
2022/04/01 08:13:40;;;;;;;13.83;6.10;;;;;;;;;;4994763;28;20260;-74
2022/04/01 08:16:08;;;;;;;14.07;7.20;;;;;;;;;;4994138;28;20409;-74
2022/04/01 08:18:34;;;;;;;42.75;9.13;;;;;;;;;;4994969;28;20174;-75
2022/04/01 08:21:00;;;;;;;38.33;8.50;;;;;;;;;;4994358;28;20178;-73
2022/04/01 08:23:31;;;;;;;11.50;6.50;;;;;;;;;;4995727;28;20413;-75
2022/04/01 08:25:57;;;;;;;30.52;7.45;;;;;;;;;;4995622;28;20173;-78
2022/04/01 08:28:24;;;;;;;11.15;5.03;;;;;;;;;;4995400;28;20661;-74
2022/04/01 08:30:50;;;;;;;7.97;5.30;;;;;;;;;;4995709;28;20182;-79
2022/04/01 08:33:17;;;;;;;11.30;6.32;;;;;;;;;;4994812;28;20212;-74
2022/04/01 08:35:43;;;;;;;16.05;6.32;;;;;;;;;;4994611;28;20173;-73
2022/04/01 08:38:09;;;;;;;17.17;6.53;;;;;;;;;;4994775;28;20170;-73
2022/04/01 08:40:36;;;;;;;11.77;6.20;;;;;;;;;;4995074;28;20158;-73
2022/04/01 08:43:02;;;;;;;14.30;6.20;;;;;;;;;;4994711;28;20396;-73
2022/04/01 08:45:31;;;;;;;12.95;5.53;;;;;;;;;;4993143;28;20286;-73
2022/04/01 08:47:57;;;;;;;19.15;7.72;;;;;;;;;;4994654;28;20261;-72
2022/04/01 08:50:23;;;;;;;12.20;6.57;;;;;;;;;;4994710;28;20192;-73
2022/04/01 08:52:49;;;;;;;16.13;6.30;;;;;;;;;;4994593;28;20197;-73
2022/04/01 08:55:15;;;;;;;11.67;5.50;;;;;;;;;;4993899;28;20480;-73
2022/04/01 08:57:42;;;;;;;13.93;5.67;;;;;;;;;;4994533;28;20417;-73
2022/04/01 09:00:16;;;;;;;15.05;4.72;;;;;;;;;;4994860;28;20501;-73
2022/04/01 09:02:42;;;;;;;16.05;6.25;;;;;;;;;;4994356;28;20636;-73
2022/04/01 09:05:09;;;;;;;9.75;5.38;;;;;;;;;;4994547;28;20188;-73
2022/04/01 09:07:35;;;;;;;18.27;6.53;;;;;;;;;;4994241;28;20197;-73
2022/04/01 09:10:05;;;;;;;29.25;7.90;;;;;;;;;;4993453;28;20186;-73
2022/04/01 09:12:31;;;;;;;13.68;5.57;;;;;;;;;;4994837;28;20192;-73
2022/04/01 09:14:58;;;;;;;13.43;6.30;;;;;;;;;;4994442;28;20170;-73
2022/04/01 09:17:43;;;;;;;20.17;6.15;;;;;;;;;;4985053;28;20210;-73
2022/04/01 09:20:10;;;;;;;19.25;6.90;;;;;;;;;;4983844;28;20256;-73
2022/04/01 09:22:36;;;;;;;14.55;6.00;;;;;;;;;;4993910;28;20182;-73
2022/04/01 09:25:02;;;;;;;21.13;6.97;;;;;;;;;;4994210;28;20182;-73
2022/04/01 09:27:37;;;;;;;15.95;5.82;;;;;;;;;;4993925;28;20197;-73
2022/04/01 09:30:04;;;;;;;11.77;5.60;;;;;;;;;;4994095;28;20188;-73
2022/04/01 09:32:37;;;;;;;13.90;5.95;;;;;;;;;;4993925;28;20173;-73
2022/04/01 09:35:03;;;;;;;11.07;5.90;;;;;;;;;;4994282;28;20181;-74
2022/04/01 09:37:41;;;;;;;16.23;6.30;;;;;;;;;;4993822;28;20186;-75
2022/04/01 09:40:08;;;;;;;15.73;6.95;;;;;;;;;;4993947;28;20197;-74
2022/04/01 09:42:34;;;;;;;10.83;4.80;;;;;;;;;;4993498;28;20563;-75
2022/04/01 09:45:00;;;;;;;15.02;5.97;;;;;;;;;;4993575;28;20835;-74
2022/04/01 09:47:26;;;;;;;15.45;5.55;;;;;;;;;;4993125;28;20197;-74
2022/04/01 09:49:54;;;;;;;16.70;6.67;;;;;;;;;;4993912;28;20502;-73
2022/04/01 09:52:22;;;;;;;11.63;6.22;;;;;;;;;;4993523;28;20913;-73
2022/04/01 09:54:55;;;;;;;14.90;6.60;;;3.90;1.00;;;;;;4993825;28;20173;-73
2022/04/01 09:57:25;;;;;;;17.10;5.10;;;;;;;;;;4993507;28;20640;-73
2022/04/01 09:59:52;;;;;;;12.52;3.55;;;;;;;;;;4993764;28;20177;-73
2022/04/01 10:02:18;;;;;;;12.23;3.38;;;;;;;;;;4993552;28;20182;-73
2022/04/01 10:04:44;;;;;;;12.38;5.47;;;;;;;;;;4993869;28;20534;-74
2022/04/01 10:07:10;;;;;;;9.87;4.73;;;;;;;;;;4992897;28;20276;-75
2022/04/01 10:09:38;;;;;;;11.98;3.20;;;;;;;;;;4993522;28;20405;-75
2022/04/01 10:12:08;;;;;;;9.35;3.63;;;;;;;;;;4993953;28;20180;-74
2022/04/01 10:14:36;;;;;;;11.10;4.07;;;;;;;;;;4996956;28;20181;-75
2022/04/01 10:17:04;;;;;;;29.23;6.93;;;;;;;;;;4993056;28;20185;-75
2022/04/01 10:19:31;;;;;;;20.38;7.43;;;;;;;;;;4980898;28;20173;-73
2022/04/01 10:21:58;;;;;;;13.32;6.13;;;;;;;;;;4992344;28;20191;-73
2022/04/01 10:24:29;;;;;;;11.35;6.40;;;;;;;;;;4992469;28;20276;-79
2022/04/01 10:26:55;;;;;;;17.20;6.70;;;;;;;;;;4993023;28;20665;-72
2022/04/01 10:29:21;;;;;;;20.90;7.43;;;;;;;;;;4993142;28;20177;-73
2022/04/01 10:31:54;;;;;;;24.00;7.33;;;;;;;;;;4993125;28;20424;-73
2022/04/01 10:34:21;;;;;;;20.33;5.88;;;;;;;;;;4992638;28;20421;-75
2022/04/01 10:37:00;;;;;;;20.83;6.78;;;;;;;;;;4986006;28;20252;-75
2022/04/01 10:39:26;;;;;;;12.85;6.30;;;;;;;;;;4992719;28;20300;-75
2022/04/01 10:42:12;;;;;;;14.05;6.43;;;;;;;;;;4993183;28;20185;-75
2022/04/01 10:44:48;;;;;;;14.25;6.85;;;;;;;;;;4992103;28;20181;-74
2022/04/01 10:47:15;;;;;;;13.82;6.15;;;;;;;;;;4992843;28;20193;-74
2022/04/01 10:52:25;;;;;;;8.98;5.13;;;;;;;;;;4993090;28;20224;-73
2022/04/01 10:55:07;;;;;;;8.40;3.17;;;;;;;;;;4992328;28;20185;-74
2022/04/01 10:57:38;;;;;;;15.45;4.82;;;;;;;;;;4992823;28;20212;-75
2022/04/01 11:00:07;;;;;;;19.67;6.03;;;;;;;;;;4979926;28;20202;-74
2022/04/01 11:02:33;;;;;;;11.73;5.93;;;;;;;;;;4992538;28;20185;-75
2022/04/01 11:05:00;;;;;;;14.98;6.40;;;;;;;;;;4992961;28;20189;-73
2022/04/01 11:07:26;;;;;;;16.90;5.85;;;;;;;;;;4992854;28;20288;-73
2022/04/01 11:10:04;;;;;;;17.07;5.90;;;;;;;;;;4992934;28;20213;-73
2022/04/01 11:12:39;;;;;;;26.92;5.75;;;;;;;;;;4990943;28;20428;-73
2022/04/01 11:15:16;;;;;;;25.17;7.55;;;;;;;;;;4992707;28;20169;-73
2022/04/01 11:17:49;;;;;;;14.75;6.03;;;;;;;;;;4994589;28;20586;-73
2022/04/01 11:20:21;;;;;;;10.55;5.65;;;;;;;;;;4996603;28;20533;-73
2022/04/01 11:23:10;;;;;;;13.90;4.22;;;3.90;1.00;;;;;;4995942;28;20220;-73
2022/04/01 11:25:38;;;;;;;10.60;2.95;;;;;;;;;;4996271;28;20645;-73
2022/04/01 11:28:06;;;;;;;8.88;3.88;;;;;;;;;;4996309;28;20251;-73
2022/04/01 11:30:41;;;;;;;9.33;4.10;;;;;;;;;;4994833;28;20541;-72
2022/04/01 11:33:07;;;;;;;14.02;4.03;;;;;;;;;;4995716;28;20931;-72
2022/04/01 11:35:39;;;;;;;16.17;3.50;;;;;;;;;;4995322;28;20182;-77
2022/04/01 11:38:06;;;;;;;12.80;3.08;;;;;;;;;;4996181;28;20412;-77
2022/04/01 11:40:33;;;;;;;10.75;4.38;;;;;;;;;;4995996;28;20644;-77
2022/04/01 11:43:07;;;;;;;15.10;5.85;;;;;;;;;;4995072;28;20181;-76
2022/04/01 11:46:02;;;;;;;15.65;6.28;;;;;;;;;;4994923;28;20192;-77
2022/04/01 11:48:31;;;;;;;14.23;6.15;;;3.70;1.00;;;;;;4995226;28;20335;-76
2022/04/01 11:51:01;;;;;;;12.25;5.10;;;3.50;1.00;;;;;;4996434;28;20228;-72
2022/04/01 11:53:32;;;;;;;13.18;5.80;;;;;;;;;;4995745;28;20249;-71
2022/04/01 11:55:59;;;;;;;14.38;6.10;;;;;;;;;;4995173;28;20633;-72
2022/04/01 11:58:26;;;;;;;14.27;5.93;;;3.40;1.00;;;;;;4995080;28;20275;-72
2022/04/01 12:00:52;;;;;;;11.90;5.72;;;;;;;;;;4995719;28;20182;-72
2022/04/01 12:03:18;;;;;;;14.07;6.57;;;;;;;;;;4995699;28;20219;-72
2022/04/01 12:05:45;;;;;;;16.73;6.38;;;;;;;;;;4995468;28;20264;-72
2022/04/01 12:10:55;;;;;;;10.18;5.65;;;;;;;;;;4995476;28;20316;-72
2022/04/01 12:13:22;;;;;;;17.25;6.70;;;;;;;;;;4998880;28;20197;-72
2022/04/01 12:15:49;;;;;;;16.45;6.80;;;4.00;1.00;;;;;;4994766;28;20173;-72
2022/04/01 12:18:16;;;;;;;18.20;6.65;;;;;;;;;;4995217;28;20309;-71
2022/04/01 12:20:43;;;;;;;24.40;7.05;;;;;;;;;;4995151;28;20308;-77
2022/04/01 12:23:09;;;;;;;11.32;6.05;;;;;;;;;;4995422;28;20655;-77
2022/04/01 12:25:37;;;;;;;13.25;4.80;;;;;;;;;;4994915;28;20217;-77
2022/04/01 12:28:08;;;;;;;23.35;6.07;;;;;;;;;;4993814;28;20671;-77
2022/04/01 12:30:40;;;;;;;11.27;4.68;;;;;;;;;;4994506;28;20530;-77
2022/04/01 12:33:07;;;;;;;15.07;4.75;;;;;;;;;;4995146;28;20261;-77
2022/04/01 12:35:34;;;;;;;13.63;6.00;;;;;;;;;;4994985;28;20181;-77
2022/04/01 12:38:11;;;;;;;22.27;6.70;;;;;;;;;;4994852;28;20656;-76
2022/04/01 12:40:45;;;;;;;13.48;6.03;;;;;;;;;;4994460;28;20170;-76
2022/04/01 12:43:54;;;;;;;12.63;6.35;;;3.60;1.00;;;;;;4994326;28;20706;-77
2022/04/01 12:46:21;;;;;;;11.75;5.20;;;;;;;;;;4972845;28;20186;-77
2022/04/01 12:48:50;;;;;;;13.25;5.43;;;3.60;1.00;;;;;;4972823;28;20193;-77
2022/04/01 12:51:25;;;;;;;12.90;6.10;;;;;;;;;;4972939;28;20210;-77
2022/04/01 12:53:52;;;;;;;9.90;4.28;;;;;;;;;;4973176;28;20661;-78
2022/04/01 12:56:19;;;;;;;11.80;5.17;;;;;;;;;;4972627;28;20236;-77
2022/04/01 12:58:53;;;;;;;11.75;4.93;;;;;;;;;;4973003;28;20417;-78
2022/04/01 13:01:20;;;;;;;12.00;5.25;;;;;;;;;;4972504;28;20185;-77
2022/04/01 13:03:47;;;;;;;15.50;6.07;;;;;;;;;;4972950;28;20190;-78
2022/04/01 13:06:14;;;;;;;13.13;5.70;;;;;;;;;;4973180;28;20186;-77
2022/04/01 13:08:40;;;;;;;16.42;6.60;;;;;;;;;;4972150;28;20232;-77
2022/04/01 13:11:12;;;;;;;19.20;6.53;;;;;;;;;;4972193;28;20218;-78
2022/04/01 13:13:38;;;;;;;18.05;5.95;;;;;;;;;;4972807;28;20405;-77
2022/04/01 13:16:04;;;;;;;14.07;6.17;;;;;;;;;;4974851;28;20233;-78
2022/04/01 13:18:32;;;;;;;12.57;4.82;;;;;;;;;;4994208;28;20781;-78
2022/04/01 13:20:58;;;;;;;25.55;6.55;;;;;;;;;;4994120;28;20173;-78
2022/04/01 13:23:27;;;;;;;10.15;5.70;;;;;;;;;;4994251;28;20177;-77
2022/04/01 13:25:53;;;;;;;13.10;6.05;;;;;;;;;;4993680;28;20182;-78
2022/04/01 13:28:19;;;;;;;9.30;4.83;;;;;;;;;;4993585;28;20751;-78
2022/04/01 13:30:45;;;;;;;13.70;6.67;;;;;;;;;;4994022;28;20415;-78
2022/04/01 13:33:11;;;;;;;9.37;5.10;;;;;;;;;;4993762;28;20912;-78
2022/04/01 13:35:40;;;;;;;12.70;6.10;;;;;;;;;;4994070;28;20910;-77
2022/04/01 13:38:06;;;;;;;19.35;6.72;;;;;;;;;;4993972;28;20232;-78
2022/04/01 13:40:32;;;;;;;38.90;8.80;;;;;;;;;;4992675;28;20189;-77
2022/04/01 13:43:03;;;;;;;11.80;5.73;;;;;;;;;;4993547;28;20476;-76
2022/04/01 13:45:30;;;;;;;23.60;6.82;;;;;;;;;;4993654;28;20413;-74
2022/04/01 13:47:58;;;;;;;289.17;30.45;;;;;;;;;;4986818;28;20210;-74
2022/04/01 13:50:24;;;;;;;11.10;6.00;;;;;;;;;;4993655;28;20181;-74
2022/04/01 13:52:51;;;;;;;18.45;7.05;;;;;;;;;;4993850;28;20201;-75
2022/04/01 13:55:17;;;;;;;13.80;6.60;;;;;;;;;;4993496;28;20177;-74
2022/04/01 13:57:43;;;;;;;25.97;7.87;;;;;;;;;;4993386;28;20178;-75
2022/04/01 14:00:09;;;;;;;10.30;5.95;;;;;;;;;;4993136;28;20416;-74
2022/04/01 14:02:36;;;;;;;9.82;5.72;;;;;;;;;;4993286;28;20182;-75
2022/04/01 14:05:02;;;;;;;13.05;5.78;;;;;;;;;;4993444;28;20284;-78
2022/04/01 14:07:28;;;;;;;9.45;4.95;;;;;;;;;;4993503;28;20254;-74
2022/04/01 14:09:54;;;;;;;13.33;6.63;;;;;;;;;;4993095;28;20189;-72
2022/04/01 14:12:20;;;;;;;18.17;7.63;;;;;;;;;;4996142;28;20416;-72
2022/04/01 14:14:46;;;;;;;13.40;7.13;;;;;;;;;;4994079;28;20744;-72
2022/04/01 14:17:12;;;;;;;15.85;6.82;;;;;;;;;;4993307;28;20459;-72
2022/04/01 14:19:38;;;;;;;13.83;6.67;;;;;;;;;;4992529;28;20213;-73
2022/04/01 14:22:04;;;;;;;14.63;6.40;;;;;;;;;;4993239;28;20432;-73
2022/04/01 14:24:30;;;;;;;24.38;8.93;;;;;;;;;;4993279;28;20192;-73
2022/04/01 14:26:57;;;;;;;15.93;7.47;;;;;;;;;;4993263;28;20256;-74
2022/04/01 14:32:08;;;;;;;16.88;7.40;;;;;;;;;;4993445;28;20216;-75
2022/04/01 14:34:36;;;;;;;8.32;5.53;;;;;;;;;;4993325;28;20173;-75
2022/04/01 14:37:03;;;;;;;20.35;8.80;;;;;;;;;;4993538;28;20169;-75
2022/04/01 14:39:29;;;;;;;20.17;8.27;;;;;;;;;;4991715;28;20177;-75
2022/04/01 14:41:56;;;;;;;16.70;8.30;;;2.30;1.00;;;;;;4988946;28;20181;-74